Time;durP1;ratioP1;P1;durP2;ratioP2;P2;SDS_P1;SDS_P2;PMS_P1;PMS_P2;Temp;Humidity;BMP_temperature;BMP_pressure;BME280_temperature;BME280_humidity;BME280_pressure;Samples;Min_cycle;Max_cycle;Signal;HPM_P1;HPM_P2
2021/04/22 00:01:43;;;;;;;14.52;2.70;;;;;;;7.84;41.36;100410.47;5033622;28;20053;-82
2021/04/22 00:04:09;;;;;;;13.48;3.13;;;;;;;7.81;41.56;100406.19;5033219;28;20620;-82
2021/04/22 00:06:35;;;;;;;16.08;3.10;;;;;;;7.79;41.55;100409.78;5033233;28;20053;-82
2021/04/22 00:09:02;;;;;;;13.93;2.83;;;;;;;7.75;41.55;100409.03;5033378;28;20486;-82
2021/04/22 00:11:28;;;;;;;19.70;3.25;;;;;;;7.73;41.77;100410.00;5032149;28;20057;-82
2021/04/22 00:13:54;;;;;;;7.43;2.70;;;;;;;7.71;41.81;100410.03;5032965;28;20509;-82
2021/04/22 00:16:21;;;;;;;18.15;2.88;;;;;;;7.67;41.56;100406.66;5033336;28;20041;-82
2021/04/22 00:18:47;;;;;;;12.23;2.80;;;;;;;7.66;41.55;100410.19;5033480;28;20096;-82
2021/04/22 00:21:14;;;;;;;14.57;3.47;;;;;;;7.64;41.70;100404.16;5032236;28;20453;-81
2021/04/22 00:23:40;;;;;;;13.27;3.50;;;;;;;7.61;41.69;100409.50;5033937;28;20049;-83
2021/04/22 00:26:06;;;;;;;14.75;3.13;;;;;;;7.56;41.98;100404.41;5033005;28;20046;-82
2021/04/22 00:28:32;;;;;;;16.15;3.55;;;;;;;7.55;42.06;100407.06;5032086;28;20076;-82
2021/04/22 00:30:58;;;;;;;13.20;3.13;;;;;;;7.52;41.93;100407.19;5033354;28;20407;-82
2021/04/22 00:33:24;;;;;;;16.08;3.58;;;;;;;7.49;41.95;100407.28;5033453;28;20050;-82
2021/04/22 00:35:51;;;;;;;17.15;3.35;;;;;;;7.48;42.27;100406.41;5035471;28;20050;-82
2021/04/22 00:38:18;;;;;;;13.13;3.05;;;;;;;7.47;42.61;100409.13;5037257;28;20049;-82
2021/04/22 00:40:46;;;;;;;14.73;3.70;;;;;;;7.47;42.50;100407.34;5036848;28;20517;-81
2021/04/22 00:43:13;;;;;;;16.80;2.95;;;;;;;7.48;42.62;100408.22;5036793;28;20096;-82
2021/04/22 00:45:43;;;;;;;15.88;3.42;;;;;;;7.48;42.62;100413.44;5036661;28;20049;-82
2021/04/22 00:48:11;;;;;;;11.48;3.03;;;;;;;7.47;42.65;100415.19;5036968;28;20045;-82
2021/04/22 00:50:39;;;;;;;15.00;3.55;;;;;;;7.48;42.45;100416.06;5035566;28;20045;-81
2021/04/22 00:53:06;;;;;;;13.20;2.80;;;;;;;7.48;42.62;100416.91;5036690;28;20557;-82
2021/04/22 00:55:33;;;;;;;15.30;3.38;;;;;;;7.48;42.67;100426.53;5036349;28;20054;-81
2021/04/22 00:58:00;;;;;;;15.52;3.10;;;;;;;7.46;42.83;100421.34;5036562;28;20107;-81
2021/04/22 01:00:31;;;;;;;14.80;3.45;;;;;;;7.48;43.41;100426.53;5036817;28;20054;-81
2021/04/22 01:02:58;;;;;;;16.15;3.60;;;;;;;7.48;42.99;100422.13;5036609;28;20054;-81
2021/04/22 01:05:32;;;;;;;14.57;3.70;;;;;;;7.48;43.42;100431.78;5036183;28;20042;-81
2021/04/22 01:07:58;;;;;;;14.45;3.42;;;;;;;7.51;42.74;100426.44;5036829;28;20099;-81
2021/04/22 01:10:25;;;;;;;13.02;2.70;;;;;;;7.52;42.83;100425.53;5036494;28;20060;-82
2021/04/22 01:12:51;;;;;;;15.63;3.08;;;;;;;7.52;43.03;100428.16;5035390;28;20394;-82
2021/04/22 01:15:22;;;;;;;14.63;3.55;;;;;;;7.52;43.51;100421.13;5035992;28;20045;-81
2021/04/22 01:17:49;;;;;;;16.88;3.35;;;;;;;7.55;43.31;100430.66;5036451;28;20050;-82
2021/04/22 01:20:17;;;;;;;17.73;3.17;;;;;;;7.57;43.70;100436.72;5036429;28;20559;-81
2021/04/22 01:22:45;;;;;;;16.27;3.42;;;;;;;7.60;43.29;100435.75;5035134;28;20053;-81
2021/04/22 01:25:15;;;;;;;14.45;2.80;;;;;;;7.62;43.82;100432.16;5035640;28;20045;-81
2021/04/22 01:27:41;;;;;;;11.45;3.08;;;;;;;7.65;43.43;100431.19;5058807;23;20053;-84
2021/04/22 01:30:11;;;;;;;12.85;3.83;;;;;;;7.69;43.86;100438.91;5015301;28;20052;-84
2021/04/22 01:32:37;;;;;;;13.10;3.53;;;;;;;7.74;43.62;100449.22;5016486;28;20053;-84
2021/04/22 01:35:09;;;;;;;16.15;3.08;;;;;;;7.76;44.26;100442.19;5015045;28;20137;-84
2021/04/22 01:37:35;;;;;;;12.18;3.03;;;;;;;7.82;43.65;100447.19;5016068;28;20569;-84
2021/04/22 01:40:03;;;;;;;14.35;3.75;;;;;;;7.87;43.86;100443.56;5016256;28;20046;-84
2021/04/22 01:42:30;;;;;;;12.77;3.40;;;;;;;7.92;43.62;100450.38;5016143;28;20049;-84
2021/04/22 01:44:56;;;;;;;14.52;3.45;;;;;;;7.97;43.59;100450.22;5016093;28;20453;-84
2021/04/22 01:47:22;;;;;;;13.13;3.15;;;;;;;8.00;43.58;100444.84;5015141;28;20053;-84
2021/04/22 01:49:48;;;;;;;8.50;3.08;;;;;;;8.04;43.57;100453.47;5014621;28;20054;-84
2021/04/22 01:52:14;;;;;;;14.07;3.65;;;;;;;8.06;43.24;100443.78;5015961;28;20139;-84
2021/04/22 01:54:40;;;;;;;13.50;3.67;;;;;;;8.10;43.17;100447.19;5014432;28;20085;-85
2021/04/22 01:57:07;;;;;;;13.10;3.42;;;;;;;8.14;43.42;100456.63;5014577;28;20049;-84
2021/04/22 01:59:33;;;;;;;11.85;4.13;;;;;;;8.15;43.24;100453.94;5015836;28;20058;-85
2021/04/22 02:01:59;;;;;;;11.10;3.25;;;;;;;8.17;43.10;100454.75;5014685;28;20053;-84
2021/04/22 02:04:26;;;;;;;14.48;3.45;;;;;;;8.19;43.56;100462.56;5014278;28;20053;-84
2021/04/22 02:06:52;;;;;;;8.70;2.85;;;;;;;8.21;43.50;100455.50;5014305;28;20049;-84
2021/04/22 02:09:18;;;;;;;19.15;3.47;;;;;;;8.21;43.40;100456.38;5014474;28;20057;-84
2021/04/22 02:11:44;;;;;;;13.38;3.53;;;;;;;8.21;43.22;100452.88;5014206;28;20058;-85
2021/04/22 02:14:10;;;;;;;15.30;3.45;;;;;;;8.21;43.42;100448.50;5014335;28;20050;-85
2021/04/22 02:16:38;;;;;;;15.07;4.13;;;;;;;8.23;43.58;100458.94;5015521;28;20056;-85
2021/04/22 02:19:04;;;;;;;19.00;3.80;;;;;;;8.21;43.58;100453.75;5014462;28;20061;-84
2021/04/22 02:21:31;;;;;;;14.13;3.28;;;;;;;8.21;43.68;100450.25;5014374;28;20050;-85
2021/04/22 02:23:58;;;;;;;10.15;3.83;;;;;;;8.23;43.76;100450.19;5013604;28;20057;-84
2021/04/22 02:26:25;;;;;;;13.38;3.40;;;;;;;8.23;43.82;100455.44;5012653;28;20060;-84
2021/04/22 02:28:51;;;;;;;13.73;3.45;;;;;;;8.22;43.73;100451.94;5013790;28;20065;-84
2021/04/22 02:31:17;;;;;;;15.20;3.08;;;;;;;8.21;43.58;100452.88;5015181;28;20050;-85
2021/04/22 02:33:43;;;;;;;14.40;3.20;;;;;;;8.19;43.67;100452.91;5015136;28;20050;-83
2021/04/22 02:36:10;;;;;;;13.38;3.72;;;;;;;8.18;43.79;100453.84;5013965;28;20054;-85
2021/04/22 02:38:36;;;;;;;11.98;3.20;;;;;;;8.18;43.63;100458.22;5013934;28;20077;-84
2021/04/22 02:41:02;;;;;;;11.57;2.92;;;;;;;8.21;43.90;100452.88;5013729;28;20049;-85
2021/04/22 02:43:28;;;;;;;10.95;2.97;;;;;;;8.20;43.78;100454.66;5013969;28;20054;-85
2021/04/22 02:45:55;;;;;;;12.98;3.22;;;;;;;8.22;43.78;100454.56;5014537;28;20506;-84
2021/04/22 02:48:23;;;;;;;12.00;3.10;;;;;;;8.22;43.72;100454.56;5015153;28;20124;-85
2021/04/22 02:50:53;;;;;;;14.88;3.40;;;;;;;8.23;44.17;100450.19;5014965;28;20057;-84
2021/04/22 02:53:20;;;;;;;14.60;3.50;;;;;;;8.25;43.89;100453.59;5013783;28;20054;-84
2021/04/22 02:55:47;;;;;;;10.82;3.30;;;;;;;8.24;43.83;100457.16;5013317;28;20046;-84
2021/04/22 02:58:21;;;;;;;10.57;2.72;;;;;;;8.25;43.61;100453.59;5013391;28;20061;-85
2021/04/22 03:00:49;;;;;;;11.23;2.88;;;;;;;8.25;43.74;100454.47;5014694;28;20065;-84
2021/04/22 03:03:15;;;;;;;12.23;3.20;;;;;;;8.24;43.36;100458.00;5014680;28;20057;-84
2021/04/22 03:05:42;;;;;;;10.85;2.47;;;;;;;8.25;43.79;100451.84;5014072;28;20046;-84
2021/04/22 03:08:08;;;;;;;13.68;3.25;;;;;;;8.27;43.56;100457.03;5013538;28;20077;-85
2021/04/22 03:10:34;;;;;;;13.85;3.10;;;;;;;8.29;43.18;100455.22;5014387;28;20052;-84
2021/04/22 03:13:03;;;;;;;15.80;3.60;;;;;;;8.30;43.63;100456.94;5014535;28;20057;-85
2021/04/22 03:15:29;;;;;;;14.10;3.00;;;;;;;8.30;43.54;100463.03;5014221;28;20058;-85
2021/04/22 03:17:56;;;;;;;10.38;2.90;;;;;;;8.30;43.33;100459.56;5013459;28;20441;-85
2021/04/22 03:20:22;;;;;;;12.32;3.03;;;;;;;8.30;43.28;100462.19;5013211;28;20057;-85
2021/04/22 03:22:49;;;;;;;11.90;3.25;;;;;;;8.29;44.03;100466.56;5014258;28;20050;-85
2021/04/22 03:25:17;;;;;;;11.70;2.80;;;;;;;8.28;44.12;100461.38;5014061;28;20061;-85
2021/04/22 03:27:43;;;;;;;18.17;3.40;;;;;;;8.30;43.87;100464.81;5014088;28;20053;-85
2021/04/22 03:30:12;;;;;;;14.77;2.97;;;;;;;8.30;44.30;100465.66;5014345;28;20084;-85
2021/04/22 03:32:39;;;;;;;8.85;2.85;;;;;;;8.31;43.88;100467.38;5013106;28;20057;-84
2021/04/22 03:35:06;;;;;;;13.30;3.22;;;;;;;8.32;44.13;100466.47;5012753;28;20050;-84
2021/04/22 03:37:33;;;;;;;12.38;2.70;;;;;;;8.34;43.89;100469.03;5014126;28;20058;-84
2021/04/22 03:40:00;;;;;;;14.23;3.08;;;;;;;8.34;44.15;100463.78;5013933;28;20053;-85
2021/04/22 03:42:26;;;;;;;10.82;3.00;;;;;;;8.34;44.02;100464.63;5014074;28;20486;-84
2021/04/22 03:44:52;;;;;;;15.27;2.78;;;;;;;8.34;43.92;100462.00;5012556;28;20057;-84
2021/04/22 03:47:18;;;;;;;12.65;3.10;;;;;;;8.35;43.80;100466.34;5012551;28;20129;-84
2021/04/22 03:49:44;;;;;;;10.32;2.70;;;;;;;8.34;44.06;100459.38;5012919;28;20053;-84
2021/04/22 03:52:11;;;;;;;14.88;3.00;;;;;;;8.34;43.61;100464.63;5012939;28;20054;-84
2021/04/22 03:54:37;;;;;;;8.95;2.58;;;;;;;8.33;44.20;100468.16;5013734;28;20100;-84
2021/04/22 03:57:06;;;;;;;16.67;2.88;;;;;;;8.32;43.77;100460.34;5012845;28;20052;-84
2021/04/22 03:59:32;;;;;;;13.70;3.30;;;;;;;8.31;43.89;100464.75;5013931;28;20061;-83
2021/04/22 04:01:58;;;;;;;13.57;2.88;;;;;;;8.31;44.00;100466.53;5012435;28;20073;-84
2021/04/22 04:04:24;;;;;;;12.15;2.85;;;;;;;8.29;43.85;100465.69;5012601;28;20057;-84
2021/04/22 04:06:50;;;;;;;10.25;2.95;;;;;;;8.28;44.16;100475.34;5012352;28;20050;-84
2021/04/22 04:09:17;;;;;;;8.77;2.42;;;;;;;8.26;44.21;100476.31;5012604;28;20490;-84
2021/04/22 04:11:43;;;;;;;15.05;2.70;;;;;;;8.26;43.94;100478.94;5016637;28;20053;-84
2021/04/22 04:14:09;;;;;;;15.38;2.95;;;;;;;8.23;44.11;100464.19;5016537;28;20050;-84
2021/04/22 04:16:35;;;;;;;13.38;2.88;;;;;;;8.24;44.21;100475.50;5017527;28;20050;-84
2021/04/22 04:19:01;;;;;;;20.75;3.20;;;;;;;8.20;44.11;100473.00;5017739;28;20054;-84
2021/04/22 04:21:28;;;;;;;13.88;2.67;;;;;;;8.18;44.14;100474.81;5017591;28;20502;-84
2021/04/22 04:23:54;;;;;;;9.80;2.28;;;;;;;8.19;44.39;100478.31;5017513;28;20057;-84
2021/04/22 04:26:20;;;;;;;13.98;2.45;;;;;;;8.16;44.22;100478.41;5017342;28;20049;-84
2021/04/22 04:28:46;;;;;;;8.82;2.75;;;;;;;8.14;44.46;100473.22;5016413;28;20532;-84
2021/04/22 04:31:13;;;;;;;12.05;3.03;;;;;;;8.15;44.62;100481.94;5017646;28;20458;-84
2021/04/22 04:33:39;;;;;;;11.40;2.88;;;;;;;8.15;44.87;100477.53;5017577;28;20104;-84
2021/04/22 04:36:06;;;;;;;10.55;2.63;;;;;;;8.17;44.65;100480.13;5017308;28;20526;-84
2021/04/22 04:38:32;;;;;;;7.03;2.33;;;;;;;8.17;44.55;100483.59;5016321;28;20061;-84
2021/04/22 04:40:58;;;;;;;12.63;3.00;;;;;;;8.18;44.82;100490.56;5016050;28;20104;-84
2021/04/22 04:43:24;;;;;;;14.88;3.42;;;;;;;8.20;44.93;100490.50;5017077;28;20053;-84
2021/04/22 04:45:50;;;;;;;7.90;2.55;;;;;;;8.20;44.98;100496.63;5015666;28;20057;-84
2021/04/22 04:48:16;;;;;;;12.77;2.78;;;;;;;8.21;44.85;100494.84;5015883;28;20054;-84
2021/04/22 04:50:43;;;;;;;10.95;2.80;;;;;;;8.22;44.92;100496.53;5016995;28;20487;-84
2021/04/22 04:53:09;;;;;;;20.55;3.63;;;;;;;8.24;44.94;100501.72;5016988;28;20057;-84
2021/04/22 04:55:35;;;;;;;14.45;2.85;;;;;;;8.24;45.08;100504.34;5015678;28;20050;-84
2021/04/22 04:58:01;;;;;;;6.60;2.25;;;;;;;8.24;44.90;100505.22;5015966;28;20442;-84
2021/04/22 05:00:27;;;;;;;8.57;2.53;;;;;;;8.27;45.26;100506.88;5017007;28;20108;-84
2021/04/22 05:02:53;;;;;;;10.13;2.83;;;;;;;8.27;45.06;100514.75;5016756;28;20057;-84
2021/04/22 05:05:19;;;;;;;8.90;2.55;;;;;;;8.28;44.94;100509.44;5015414;28;20054;-87
2021/04/22 05:07:46;;;;;;;12.02;2.63;;;;;;;8.30;45.05;100518.09;5015382;28;20056;-86
2021/04/22 05:10:13;;;;;;;9.05;2.10;;;;;;;8.31;45.03;100526.84;5017018;28;20054;-86
2021/04/22 05:12:39;;;;;;;10.63;2.63;;;;;;;8.34;44.73;100521.50;5016963;28;20058;-86
2021/04/22 05:15:06;;;;;;;12.38;2.80;;;;;;;8.34;45.35;100517.09;5015130;28;20060;-86
2021/04/22 05:17:33;;;;;;;7.22;2.65;;;;;;;8.37;45.06;100518.75;5015658;28;20046;-86
2021/04/22 05:19:59;;;;;;;15.57;3.22;;;;;;;8.41;45.31;100519.50;5015579;28;20124;-86
2021/04/22 05:22:25;;;;;;;9.38;2.53;;;;;;;8.42;45.38;100529.97;5015514;28;20387;-86
2021/04/22 05:24:51;;;;;;;12.00;2.75;;;;;;;8.45;45.34;100535.06;5016193;28;20058;-86
2021/04/22 05:27:18;;;;;;;9.30;2.55;;;;;;;8.46;45.15;100538.56;5016203;28;20517;-86
2021/04/22 05:29:44;;;;;;;16.38;2.85;;;;;;;8.45;45.20;100537.69;5016581;28;20053;-87
2021/04/22 05:32:10;;;;;;;8.02;2.38;;;;;;;8.45;45.44;100539.50;5016201;28;20483;-85
2021/04/22 05:34:36;;;;;;;10.20;3.05;;;;;;;8.46;45.52;100543.81;5015061;28;20058;-86
2021/04/22 05:37:03;;;;;;;9.43;2.70;;;;;;;8.49;45.47;100546.34;5014954;28;20054;-86
2021/04/22 05:39:29;;;;;;;9.35;2.40;;;;;;;8.51;45.46;100541.88;5016311;28;20049;-86
2021/04/22 05:41:57;;;;;;;11.10;2.72;;;;;;;8.54;45.72;100533.94;5015060;28;20056;-86
2021/04/22 05:44:25;;;;;;;8.60;2.28;;;;;;;8.58;45.85;100540.78;5015055;28;20064;-86
2021/04/22 05:46:51;;;;;;;8.95;2.65;;;;;;;8.64;45.77;100539.72;5014994;28;20107;-86
2021/04/22 05:49:17;;;;;;;12.15;2.95;;;;;;;8.68;45.67;100546.53;5014843;28;20100;-86
2021/04/22 05:51:44;;;;;;;17.65;2.67;;;;;;;8.73;45.73;100543.75;5015305;28;20512;-86
2021/04/22 05:54:11;;;;;;;11.15;2.72;;;;;;;8.77;45.54;100545.34;5014641;28;20499;-86
2021/04/22 05:56:38;;;;;;;16.30;3.38;;;;;;;8.80;45.71;100553.13;5014759;28;20046;-86
2021/04/22 05:59:04;;;;;;;11.15;2.70;;;;;;;8.84;45.63;100551.25;5014768;28;20058;-86
2021/04/22 06:01:31;;;;;;;12.88;2.90;;;;;;;8.86;45.78;100560.75;5014884;28;20053;-86
2021/04/22 06:03:57;;;;;;;9.20;2.40;;;;;;;8.89;45.54;100556.34;5014536;28;20050;-86
2021/04/22 06:06:23;;;;;;;14.63;2.88;;;;;;;8.91;45.19;100557.97;5014221;28;20046;-86
2021/04/22 06:08:49;;;;;;;9.80;2.40;;;;;;;8.95;45.46;100563.97;5014678;28;20387;-86
2021/04/22 06:11:16;;;;;;;12.05;2.22;;;;;;;8.98;45.43;100569.13;5016020;28;20061;-86
2021/04/22 06:13:42;;;;;;;11.65;2.88;;;;;;;9.01;45.48;100558.47;5014117;28;20056;-86
2021/04/22 06:16:08;;;;;;;11.57;2.60;;;;;;;9.04;45.38;100565.41;5015293;28;20046;-86
2021/04/22 06:18:35;;;;;;;11.90;2.42;;;;;;;9.07;45.54;100567.91;5015664;28;20120;-86
2021/04/22 06:21:02;;;;;;;10.70;2.97;;;;;;;9.11;45.21;100575.63;5015340;28;20057;-85
2021/04/22 06:23:28;;;;;;;14.82;2.67;;;;;;;9.16;45.49;100571.97;5015562;28;20112;-86
2021/04/22 06:25:55;;;;;;;12.48;2.88;;;;;;;9.20;45.18;100576.19;5013862;28;20474;-86
2021/04/22 06:28:21;;;;;;;10.20;2.78;;;;;;;9.24;45.09;100576.00;5014020;28;20053;-86
2021/04/22 06:30:48;;;;;;;10.32;2.60;;;;;;;9.30;45.35;100568.81;5014086;28;20056;-86
2021/04/22 06:33:14;;;;;;;12.65;2.65;;;;;;;9.35;45.31;100574.75;5013465;28;20053;-86
2021/04/22 06:35:41;;;;;;;12.63;3.22;;;;;;;9.38;45.21;100582.47;5015115;28;20058;-86
2021/04/22 06:38:07;;;;;;;11.23;2.80;;;;;;;9.45;45.05;100583.97;5015143;28;20104;-86
2021/04/22 06:40:33;;;;;;;11.05;2.53;;;;;;;9.51;45.05;100588.13;5014894;28;20076;-86
2021/04/22 06:43:04;;;;;;;11.90;2.80;;;;;;;9.57;45.06;100590.50;5015209;28;20049;-86
2021/04/22 06:45:33;;;;;;;11.95;2.65;;;;;;;9.62;44.80;100590.34;5014835;28;20056;-86
2021/04/22 06:47:59;;;;;;;10.77;2.65;;;;;;;9.67;45.24;100588.38;5013872;28;20064;-86
2021/04/22 06:50:26;;;;;;;12.52;2.72;;;;;;;9.70;45.19;100596.16;5014752;28;20050;-86
2021/04/22 06:52:52;;;;;;;16.38;2.88;;;;;;;9.73;44.50;100593.41;5014053;28;20076;-86
2021/04/22 06:55:22;;;;;;;10.57;2.75;;;;;;;9.75;44.43;100595.94;5014859;28;20470;-87
2021/04/22 06:57:57;;;;;;;8.95;2.47;;;;;;;9.78;44.49;100596.69;5014973;28;20128;-88
2021/04/22 07:00:24;;;;;;;12.35;2.97;;;;;;;9.79;44.47;100608.06;5014515;28;20053;-86
2021/04/22 07:02:51;;;;;;;8.35;2.28;;;;;;;9.80;44.18;100603.66;5013569;28;20049;-86
2021/04/22 07:05:18;;;;;;;9.32;2.53;;;;;;;9.80;43.99;100603.66;5013115;28;20057;-86
2021/04/22 07:07:44;;;;;;;11.45;2.90;;;;;;;9.80;44.21;100593.16;5014217;28;20053;-86
2021/04/22 07:10:12;;;;;;;8.20;2.45;;;;;;;9.80;44.26;100599.28;5013388;28;20050;-86
2021/04/22 07:12:38;;;;;;;8.85;2.67;;;;;;;9.82;44.19;100605.31;5014815;28;20054;-86
2021/04/22 07:15:06;;;;;;;13.38;2.58;;;;;;;9.84;43.94;100603.50;5013096;28;20050;-85
2021/04/22 07:17:32;;;;;;;12.77;3.33;;;;;;;9.86;44.28;100604.28;5014430;28;20050;-86
2021/04/22 07:19:59;;;;;;;11.20;2.55;;;;;;;9.88;44.44;100602.44;5014322;28;20054;-86
2021/04/22 07:22:26;;;;;;;10.35;2.42;;;;;;;9.93;44.54;100599.63;5012987;28;20215;-86
2021/04/22 07:24:55;;;;;;;12.02;2.97;;;;;;;10.01;44.73;100602.78;5012800;28;20049;-86
2021/04/22 07:27:22;;;;;;;12.13;2.88;;;;;;;10.12;44.25;100604.13;5052440;22;20053;-81
2021/04/22 07:29:49;;;;;;;11.15;2.65;;;;;;;10.23;44.37;100607.16;5014213;28;20465;-81
2021/04/22 07:32:16;;;;;;;16.92;2.90;;;;;;;10.35;43.93;100605.78;5014251;28;20057;-81
2021/04/22 07:34:45;;;;;;;11.40;3.05;;;;;;;10.47;43.73;100604.44;5012647;28;20092;-81
2021/04/22 07:37:12;;;;;;;12.30;2.78;;;;;;;10.57;43.42;100619.84;5014102;28;20042;-81
2021/04/22 07:39:39;;;;;;;10.45;2.45;;;;;;;10.64;43.40;100610.75;5014017;28;20049;-82
2021/04/22 07:42:05;;;;;;;15.25;2.88;;;;;;;10.71;43.19;100609.56;5014181;28;20494;-82
2021/04/22 07:44:31;;;;;;;12.60;2.55;;;;;;;10.78;42.91;100615.41;5013051;28;20046;-81
2021/04/22 07:46:58;;;;;;;10.55;2.78;;;;;;;10.82;43.12;100617.88;5014047;28;20053;-81
2021/04/22 07:49:24;;;;;;;13.27;2.97;;;;;;;10.89;42.94;100626.34;5013961;28;20088;-81
2021/04/22 07:51:50;;;;;;;11.15;2.85;;;;;;;10.94;42.91;100612.97;5013969;28;20116;-81
2021/04/22 07:54:16;;;;;;;12.25;3.22;;;;;;;10.99;43.03;100621.50;5012571;28;20120;-82
2021/04/22 07:56:42;;;;;;;12.23;2.78;;;;;;;11.04;42.95;100609.00;5013635;28;20494;-81
2021/04/22 07:59:08;;;;;;;10.60;2.38;;;;;;;11.12;42.49;100629.72;5012754;28;20057;-81
2021/04/22 08:01:35;;;;;;;13.55;2.78;;;;;;;11.17;42.63;100635.63;5012106;28;20495;-82
2021/04/22 08:04:04;;;;;;;10.88;2.53;;;;;;;11.23;41.94;100631.88;5011293;28;20057;-82
2021/04/22 08:06:33;;;;;;;12.32;2.88;;;;;;;11.28;41.99;100642.19;5013223;28;20410;-82
2021/04/22 08:09:00;;;;;;;20.10;3.30;;;;;;;11.31;42.14;100624.47;5013455;28;20418;-82
2021/04/22 08:11:27;;;;;;;21.40;2.97;;;;;;;11.36;41.98;100639.22;5013415;28;20137;-82
2021/04/22 08:13:53;;;;;;;10.45;2.83;;;;;;;11.39;41.85;100645.19;5011577;28;20289;-82
2021/04/22 08:16:20;;;;;;;13.48;2.72;;;;;;;11.43;41.48;100638.00;5011296;28;20446;-82
2021/04/22 08:18:46;;;;;;;8.57;2.67;;;;;;;11.46;41.56;100640.50;5012922;28;20155;-82
2021/04/22 08:21:12;;;;;;;13.40;2.92;;;;;;;11.49;41.47;100650.91;5012951;28;20053;-82
2021/04/22 08:23:38;;;;;;;9.13;2.88;;;;;;;11.52;41.13;100656.03;5012877;28;20129;-82
2021/04/22 08:26:08;;;;;;;10.10;3.08;;;;;;;11.52;41.37;100653.41;5011172;28;20046;-82
2021/04/22 08:28:36;;;;;;;9.65;2.92;;;;;;;11.56;41.53;100643.56;5012959;28;20050;-82
2021/04/22 08:31:06;;;;;;;11.00;2.28;;;;;;;11.63;41.87;100641.50;5011987;28;20056;-82
2021/04/22 08:33:36;;;;;;;12.63;3.22;;;;;;;11.70;41.64;100661.38;5013460;28;20050;-82
2021/04/22 08:36:04;;;;;;;7.82;2.33;;;;;;;11.78;41.22;100655.72;5011419;28;20042;-82
2021/04/22 08:38:30;;;;;;;9.68;2.50;;;;;;;11.84;41.10;100647.50;5013649;28;20054;-82
2021/04/22 08:40:56;;;;;;;12.77;2.60;;;;;;;11.88;40.94;100659.63;5012305;28;20545;-81
2021/04/22 08:43:23;;;;;;;11.05;2.80;;;;;;;11.92;40.74;100663.00;5012321;28;20050;-82
2021/04/22 08:45:50;;;;;;;11.25;2.45;;;;;;;11.95;40.65;100652.28;5012161;28;20057;-81
2021/04/22 08:48:17;;;;;;;12.32;2.65;;;;;;;11.99;40.65;100652.06;5013448;28;20046;-82
2021/04/22 08:50:47;;;;;;;6.40;2.42;;;;;;;12.04;40.62;100661.53;5013564;28;20104;-81
2021/04/22 08:53:22;;;;;;;13.10;3.05;;;;;;;12.07;39.81;100656.16;5012338;28;20054;-81
2021/04/22 08:55:48;;;;;;;10.95;3.05;;;;;;;12.12;39.78;100662.88;5014004;28;20061;-83
2021/04/22 08:58:14;;;;;;;13.52;2.92;;;;;;;12.14;39.87;100667.25;5017134;28;20143;-82
2021/04/22 09:00:55;;;;;;;9.85;2.95;;;;;;;12.08;39.71;100671.88;5016977;28;20054;-81
2021/04/22 09:03:23;;;;;;;9.35;2.70;;;;;;;12.11;39.90;100661.19;5017040;28;20085;-83
2021/04/22 09:05:49;;;;;;;12.18;3.28;;;;;;;12.12;40.02;100664.69;5016459;28;20049;-81
2021/04/22 09:08:16;;;;;;;14.70;3.15;;;;;;;12.12;39.71;100668.16;5016809;28;20058;-81
2021/04/22 09:10:43;;;;;;;6.90;2.25;;;;;;;12.14;40.18;100660.19;5016747;28;20486;-81
2021/04/22 09:13:15;;;;;;;14.98;3.13;;;;;;;12.17;39.82;100673.22;5016876;28;20053;-81
2021/04/22 09:15:45;;;;;;;14.48;3.20;;;;;;;12.27;40.74;100656.94;5016542;28;20060;-81
2021/04/22 09:18:18;;;;;;;11.63;2.83;;;;;;;12.41;40.55;100664.19;5016649;28;20046;-81
2021/04/22 09:20:48;;;;;;;9.65;2.40;;;;;;;12.59;39.74;100659.72;5017069;28;20061;-81
2021/04/22 09:23:26;;;;;;;11.30;2.85;;;;;;;12.73;40.03;100653.75;5016949;28;20054;-82
2021/04/22 09:26:07;;;;;;;12.23;3.28;;;;;;;12.93;40.01;100659.78;5016119;28;20482;-82
2021/04/22 09:28:34;;;;;;;9.20;2.88;;;;;;;13.06;39.81;100660.00;5015376;28;20069;-84
2021/04/22 09:31:00;;;;;;;11.07;2.95;;;;;;;13.18;39.96;100666.41;5016463;28;20495;-82
2021/04/22 09:33:29;;;;;;;6.40;2.58;;;;;;;13.29;39.85;100662.28;5016369;28;20058;-82
2021/04/22 09:36:16;;;;;;;10.30;2.72;;;;;;;13.40;39.13;100676.69;5016157;28;20081;-82
2021/04/22 09:38:54;;;;;;;10.90;2.50;;;;;;;13.52;38.82;100675.19;5013843;28;20049;-83
2021/04/22 09:41:25;;;;;;;9.25;2.55;;;;;;;13.64;38.49;100671.03;5015976;28;20081;-81
2021/04/22 09:44:08;;;;;;;8.07;2.53;;;;;;;13.66;38.30;100675.31;5015220;28;20050;-82
2021/04/22 09:46:35;;;;;;;7.50;2.20;;;;;;;13.73;38.14;100669.66;5015582;28;20050;-82
2021/04/22 09:49:09;;;;;;;14.13;3.42;;;;;;;13.68;37.83;100676.06;5015751;28;20120;-82
2021/04/22 09:51:37;;;;;;;7.28;2.33;;;;;;;13.72;38.53;100673.25;5015687;28;20081;-81
2021/04/22 09:54:07;;;;;;;10.23;2.42;;;;;;;13.75;38.34;100673.94;5015315;28;20096;-82
2021/04/22 09:56:53;;;;;;;13.23;2.58;;;;;;;13.77;37.96;100671.19;5015483;28;20053;-82
2021/04/22 09:59:22;;;;;;;10.07;2.25;;;;;;;13.84;38.32;100677.88;5015420;28;20054;-82
2021/04/22 10:02:03;;;;;;;11.20;2.67;;;;;;;13.91;38.36;100673.09;5014447;28;20045;-81
2021/04/22 10:04:35;;;;;;;8.13;2.15;;;;;;;14.02;37.55;100675.13;5004374;28;20502;-81
2021/04/22 10:07:02;;;;;;;7.68;2.63;;;;;;;14.17;38.26;100684.00;4994495;28;20046;-82
2021/04/22 10:09:35;;;;;;;14.85;2.45;;;;;;;14.27;37.94;100665.75;4995511;28;20054;-82
2021/04/22 10:12:02;;;;;;;8.65;2.20;;;;;;;14.36;37.70;100667.88;4995446;28;20057;-81
2021/04/22 10:14:29;;;;;;;10.38;2.85;;;;;;;14.43;37.72;100668.38;4995425;28;20050;-81
2021/04/22 10:16:55;;;;;;;7.47;2.75;;;;;;;14.49;37.74;100667.13;4995388;28;20046;-82
2021/04/22 10:19:22;;;;;;;9.00;2.53;;;;;;;14.58;37.87;100671.94;4995147;28;20097;-82
2021/04/22 10:21:48;;;;;;;5.85;2.10;;;;;;;14.70;37.47;100680.94;4994178;28;20057;-82
2021/04/22 10:24:17;;;;;;;10.20;2.47;;;;;;;14.83;37.11;100670.47;4993421;28;20073;-82
2021/04/22 10:26:44;;;;;;;9.77;2.50;;;;;;;14.92;36.93;100685.81;4995824;28;20454;-82
2021/04/22 10:29:11;;;;;;;8.93;2.50;;;;;;;14.97;36.74;100680.25;4996001;28;20046;-82
2021/04/22 10:31:39;;;;;;;10.75;2.70;;;;;;;15.01;36.62;100679.09;4995552;28;20057;-82
2021/04/22 10:34:08;;;;;;;6.55;2.33;;;;;;;15.02;36.29;100686.13;4995397;28;20078;-82
2021/04/22 10:36:36;;;;;;;11.40;2.78;;;;;;;15.03;36.12;100681.66;4995885;28;20050;-81
2021/04/22 10:39:03;;;;;;;5.47;2.13;;;;;;;15.02;36.45;100682.63;4995734;28;20518;-82
2021/04/22 10:41:35;;;;;;;9.80;2.50;;;;;;;15.00;36.55;100684.50;4995841;28;20108;-82
2021/04/22 10:44:03;;;;;;;7.85;2.60;;;;;;;15.08;37.03;100682.25;4995443;28;20058;-82
2021/04/22 10:46:31;;;;;;;8.88;2.25;;;;;;;15.22;37.30;100690.19;4995729;28;20046;-82
2021/04/22 10:48:58;;;;;;;7.97;2.55;;;;;;;15.39;37.12;100688.28;4995421;28;20533;-82
2021/04/22 10:51:24;;;;;;;6.65;2.38;;;;;;;15.55;36.31;100690.00;4994391;28;20050;-82
2021/04/22 10:53:51;;;;;;;6.88;2.42;;;;;;;15.67;36.65;100691.00;4995194;28;20105;-82
2021/04/22 10:56:30;;;;;;;6.60;1.88;;;;;;;15.71;35.34;100685.44;4994996;28;20392;-82
2021/04/22 10:58:56;;;;;;;11.30;2.20;;;;;;;15.82;35.92;100689.19;4995407;28;20050;-82
2021/04/22 11:01:40;;;;;;;6.88;2.03;;;;;;;15.83;35.25;100683.78;4995241;28;20467;-82
2021/04/22 11:04:09;;;;;;;9.55;2.00;;;;;;;15.97;34.94;100685.56;4995155;28;20050;-82
2021/04/22 11:06:38;;;;;;;10.45;2.53;;;;;;;16.23;36.51;100677.66;4995022;28;20077;-82
2021/04/22 11:09:20;;;;;;;6.28;2.38;;;;;;;16.68;36.43;100684.50;4995259;28;20057;-82
2021/04/22 11:11:58;;;;;;;9.38;2.60;;;;;;;17.15;35.32;100681.31;4995239;28;20517;-82
2021/04/22 11:14:55;;;;;;;7.85;2.08;;;;;;;17.48;34.76;100684.38;4994883;28;20046;-82
2021/04/22 11:17:37;;;;;;;6.65;2.65;;;;;;;17.58;33.49;100688.09;4990530;28;20082;-82
2021/04/22 11:20:24;;;;;;;8.07;2.75;;;;;;;17.54;33.70;100686.59;4995077;28;20125;-82
2021/04/22 11:22:50;;;;;;;7.35;2.17;;;;;;;17.56;33.37;100690.00;4994031;28;20105;-82
2021/04/22 11:25:20;;;;;;;6.22;2.17;;;;;;;17.65;34.11;100684.00;4994754;28;20054;-82
2021/04/22 11:27:53;;;;;;;4.50;1.98;;;;;;;17.95;33.69;100693.38;4994602;28;20554;-82